Time;durP1;ratioP1;P1;durP2;ratioP2;P2;SDS_P1;SDS_P2;PMS_P1;PMS_P2;Temp;Humidity;BMP_temperature;BMP_pressure;BME280_temperature;BME280_humidity;BME280_pressure;Samples;Min_cycle;Max_cycle;Signal;HPM_P1;HPM_P2
2022/05/24 00:00:34;;;;;;;9.13;3.40;;;15.50;99.90;;;;;;6312211;22;20168;-87
2022/05/24 00:03:00;;;;;;;6.57;3.47;;;15.60;99.90;;;;;;6312058;22;20152;-88
2022/05/24 00:05:28;;;;;;;8.50;3.63;;;15.80;99.90;;;;;;6312181;22;20185;-88
2022/05/24 00:07:54;;;;;;;8.43;3.50;;;15.60;99.90;;;;;;6312002;22;20628;-88
2022/05/24 00:10:27;;;;;;;11.37;3.77;;;15.40;99.90;;;;;;6312105;22;20159;-88
2022/05/24 00:12:53;;;;;;;7.70;2.73;;;15.10;99.90;;;;;;6311744;22;20478;-88
2022/05/24 00:15:20;;;;;;;9.07;3.10;;;15.00;99.90;;;;;;6311942;22;20183;-89
2022/05/24 00:17:48;;;;;;;6.93;2.77;;;14.80;99.90;;;;;;6311562;22;20157;-88
2022/05/24 00:20:15;;;;;;;8.07;2.60;;;14.60;99.90;;;;;;6311951;22;20150;-89
2022/05/24 00:22:41;;;;;;;10.47;2.70;;;14.50;99.90;;;;;;6311784;22;20149;-89
2022/05/24 00:25:07;;;;;;;8.97;2.80;;;14.60;99.90;;;;;;6311856;22;20183;-88
2022/05/24 00:27:33;;;;;;;6.67;2.60;;;14.60;99.90;;;;;;6312713;22;20141;-88
2022/05/24 00:29:59;;;;;;;10.20;3.80;;;14.80;99.90;;;;;;6311850;22;20221;-88
2022/05/24 00:32:25;;;;;;;9.97;3.07;;;14.90;99.90;;;;;;6312236;22;20149;-88
2022/05/24 00:34:51;;;;;;;8.20;2.60;;;15.00;99.90;;;;;;6312123;22;20215;-88
2022/05/24 00:37:21;;;;;;;7.20;2.00;;;15.00;99.90;;;;;;6311944;22;20160;-89
2022/05/24 00:39:47;;;;;;;8.63;3.63;;;15.00;99.90;;;;;;6311676;22;20146;-88
2022/05/24 00:42:17;;;;;;;9.73;2.27;;;15.10;99.90;;;;;;6311758;22;20210;-88
2022/05/24 00:44:49;;;;;;;6.40;2.70;;;14.90;99.90;;;;;;6311611;22;20188;-88
2022/05/24 00:47:30;;;;;;;9.93;2.93;;;14.70;99.90;;;;;;6311837;22;20154;-88
2022/05/24 00:50:02;;;;;;;9.60;2.67;;;14.60;99.90;;;;;;6311550;22;20164;-90
2022/05/24 00:52:45;;;;;;;9.23;2.70;;;14.50;99.90;;;;;;6312143;22;20196;-88
2022/05/24 00:55:14;;;;;;;8.53;2.67;;;14.50;99.90;;;;;;6311604;22;20153;-88
2022/05/24 00:58:05;;;;;;;8.63;2.33;;;14.40;99.90;;;;;;6311908;22;20149;-88
2022/05/24 01:00:31;;;;;;;8.70;2.13;;;14.50;99.90;;;;;;6311652;22;20156;-88
2022/05/24 01:02:57;;;;;;;7.97;2.40;;;14.50;99.90;;;;;;6312122;22;20156;-88
2022/05/24 01:05:26;;;;;;;8.07;2.30;;;14.40;99.90;;;;;;6311395;22;20174;-88
2022/05/24 01:07:52;;;;;;;7.63;2.30;;;14.50;99.90;;;;;;6311652;22;20146;-88
2022/05/24 01:10:30;;;;;;;10.57;2.37;;;14.50;99.90;;;;;;6311039;22;20237;-88
2022/05/24 01:13:04;;;;;;;7.73;2.13;;;14.30;99.90;;;;;;6311526;22;20169;-88
2022/05/24 01:15:30;;;;;;;8.23;2.23;;;14.20;99.90;;;;;;6311742;22;20575;-88
2022/05/24 01:17:58;;;;;;;6.70;2.23;;;14.10;99.90;;;;;;6311488;22;20582;-89
2022/05/24 01:20:24;;;;;;;7.93;2.30;;;14.30;99.90;;;;;;6311485;22;20149;-88
2022/05/24 01:22:58;;;;;;;8.43;1.87;;;14.20;99.90;;;;;;6311650;22;20153;-88
2022/05/24 01:25:36;;;;;;;7.20;2.00;;;14.30;99.90;;;;;;6311463;22;20192;-88
2022/05/24 01:28:08;;;;;;;8.60;2.10;;;14.20;99.90;;;;;;6311337;22;20513;-88
2022/05/24 01:30:34;;;;;;;7.37;2.00;;;14.20;99.90;;;;;;6311361;22;20145;-88
2022/05/24 01:38:49;;;;;;;5.37;2.07;;;14.30;99.90;;;;;;6311711;22;20151;-88
2022/05/24 01:41:26;;;;;;;9.30;1.73;;;14.30;99.90;;;;;;6311465;22;20149;-88
2022/05/24 01:43:54;;;;;;;6.47;1.90;;;14.20;99.90;;;;;;6311501;22;20185;-88
2022/05/24 01:46:29;;;;;;;4.23;2.00;;;14.30;99.90;;;;;;6311609;22;20155;-88
2022/05/24 01:48:59;;;;;;;8.70;2.27;;;14.20;99.90;;;;;;6311368;22;20153;-88
2022/05/24 01:51:33;;;;;;;7.63;2.17;;;14.30;99.90;;;;;;6311141;22;20153;-87
2022/05/24 01:54:02;;;;;;;7.83;2.00;;;14.30;99.90;;;;;;6311200;22;20150;-88
2022/05/24 01:56:49;;;;;;;14.27;2.50;;;14.20;99.90;;;;;;6311306;22;20185;-88
2022/05/24 01:59:17;;;;;;;10.50;2.30;;;14.10;99.90;;;;;;6311319;22;20150;-88
2022/05/24 02:01:50;;;;;;;5.50;1.97;;;14.20;99.90;;;;;;6311268;22;20240;-88
2022/05/24 02:04:18;;;;;;;8.63;2.07;;;14.30;99.90;;;;;;6311391;22;20647;-88
2022/05/24 02:06:43;;;;;;;7.93;2.00;;;14.30;99.90;;;;;;6310745;22;20142;-88
2022/05/24 02:09:13;;;;;;;7.40;2.00;;;14.30;99.90;;;;;;6311629;22;20202;-88
2022/05/24 02:11:40;;;;;;;6.33;1.70;;;14.40;99.90;;;;;;6311415;22;20173;-88
2022/05/24 02:14:28;;;;;;;7.33;1.73;;;14.30;99.90;;;;;;6311553;22;20196;-88
2022/05/24 02:17:23;;;;;;;5.37;1.70;;;14.40;99.90;;;;;;6311198;22;20166;-88
2022/05/24 02:19:52;;;;;;;4.93;2.10;;;14.60;99.90;;;;;;6306812;22;20169;-88
2022/05/24 02:22:21;;;;;;;6.97;1.93;;;14.50;99.90;;;;;;6310982;22;20138;-88
2022/05/24 02:24:57;;;;;;;6.83;1.93;;;14.70;99.90;;;;;;6312883;22;20209;-90
2022/05/24 02:27:24;;;;;;;3.33;1.73;;;14.60;99.90;;;;;;6312954;22;20143;-88
2022/05/24 02:29:49;;;;;;;6.57;1.53;;;14.60;99.90;;;;;;6312763;22;20150;-87
2022/05/24 02:32:15;;;;;;;6.60;2.30;;;14.70;99.90;;;;;;6312729;22;20155;-87
2022/05/24 02:34:41;;;;;;;5.23;1.60;;;14.70;99.90;;;;;;6313387;22;20153;-87
2022/05/24 02:37:06;;;;;;;8.10;1.80;;;14.70;99.90;;;;;;6311817;22;20213;-87
2022/05/24 02:41:28;;;;;;;12.70;2.20;;;14.80;99.90;;;;;;6312611;22;20150;-88
2022/05/24 02:42:17;;;;;;;9.13;1.87;;;14.70;99.90;;;;;;6339761;22;20155;-87
2022/05/24 02:44:43;;;;;;;5.53;1.80;;;14.60;99.90;;;;;;6312998;22;20199;-88
2022/05/24 02:47:10;;;;;;;8.87;2.37;;;14.60;99.90;;;;;;6312708;22;20476;-88
2022/05/24 02:49:35;;;;;;;9.17;1.70;;;14.60;99.90;;;;;;6312599;22;20158;-86
2022/05/24 02:52:01;;;;;;;7.03;1.87;;;14.60;99.90;;;;;;6312501;22;20150;-87
2022/05/24 02:54:27;;;;;;;6.97;2.27;;;14.30;99.90;;;;;;6312777;22;20467;-88
2022/05/24 02:56:53;;;;;;;7.37;1.50;;;14.20;99.90;;;;;;6312698;22;20608;-88
2022/05/24 02:59:19;;;;;;;7.90;1.73;;;14.20;99.90;;;;;;6312941;22;20179;-87
2022/05/24 03:01:45;;;;;;;8.37;1.90;;;14.30;99.90;;;;;;6312625;22;20185;-87
2022/05/24 03:04:11;;;;;;;4.33;1.70;;;14.40;99.90;;;;;;6312914;22;20192;-88
2022/05/24 03:09:35;;;;;;;7.07;2.07;;;14.40;99.90;;;;;;6340168;22;20205;-88
2022/05/24 03:14:50;;;;;;;8.80;1.90;;;14.30;99.90;;;;;;6339893;22;20178;-88
2022/05/24 03:17:16;;;;;;;4.37;1.70;;;14.30;99.90;;;;;;6312461;22;20206;-89
2022/05/24 03:19:42;;;;;;;5.83;1.50;;;14.40;99.90;;;;;;6312010;22;20180;-88
2022/05/24 03:22:09;;;;;;;6.10;1.90;;;14.20;99.90;;;;;;6312482;22;20237;-87
2022/05/24 03:24:35;;;;;;;5.77;2.37;;;14.10;99.90;;;;;;6312234;22;20259;-88
2022/05/24 03:27:05;;;;;;;11.20;2.80;;;14.20;99.90;;;;;;6312204;22;20146;-88
2022/05/24 03:29:31;;;;;;;8.20;3.37;;;14.10;99.90;;;;;;6311865;22;20157;-87
2022/05/24 03:31:57;;;;;;;7.90;2.30;;;14.10;99.90;;;;;;6312215;22;20150;-88
2022/05/24 03:34:22;;;;;;;17.53;5.30;;;14.10;99.90;;;;;;6312244;22;20224;-87
2022/05/24 03:36:48;;;;;;;11.47;3.23;;;14.00;99.90;;;;;;6312164;22;20147;-87
2022/05/24 03:39:14;;;;;;;7.43;2.10;;;14.10;99.90;;;;;;6312196;22;20155;-87
2022/05/24 03:41:43;;;;;;;5.50;2.10;;;13.90;99.90;;;;;;6312584;22;20633;-86
2022/05/24 03:44:10;;;;;;;5.33;2.57;;;14.00;99.90;;;;;;6312312;22;20228;-88
2022/05/24 03:46:37;;;;;;;11.30;2.23;;;13.90;99.90;;;;;;6312516;22;20161;-87
2022/05/24 03:49:03;;;;;;;6.87;1.90;;;14.10;99.90;;;;;;6311715;22;20146;-87
2022/05/24 03:51:29;;;;;;;10.17;2.40;;;14.00;99.90;;;;;;6312403;22;20152;-88
2022/05/24 03:53:55;;;;;;;15.93;3.83;;;14.20;99.90;;;;;;6312227;22;20209;-87
2022/05/24 03:56:20;;;;;;;9.97;2.13;;;14.20;99.90;;;;;;6312102;22;20141;-88
2022/05/24 03:58:46;;;;;;;15.70;4.33;;;14.30;99.90;;;;;;6311868;22;20146;-87
2022/05/24 04:01:12;;;;;;;19.13;4.40;;;14.40;99.90;;;;;;6311886;22;20200;-87
2022/05/24 04:03:38;;;;;;;9.80;2.53;;;14.40;99.90;;;;;;6311953;22;20197;-87
2022/05/24 04:06:04;;;;;;;5.93;2.13;;;14.40;99.90;;;;;;6312359;22;20152;-86
2022/05/24 04:08:29;;;;;;;11.23;1.90;;;14.10;99.90;;;;;;6312152;22;20531;-87
2022/05/24 04:11:03;;;;;;;5.37;1.77;;;14.10;99.90;;;;;;6312100;22;20143;-87
2022/05/24 04:13:30;;;;;;;6.40;1.60;;;14.00;99.90;;;;;;6311895;22;20245;-88
2022/05/24 04:15:56;;;;;;;8.83;1.70;;;14.10;99.90;;;;;;6312132;22;20157;-87
2022/05/24 04:18:21;;;;;;;6.67;1.33;;;13.90;99.90;;;;;;6311572;22;20152;-90
2022/05/24 04:20:48;;;;;;;4.70;1.63;;;13.80;99.90;;;;;;6312125;22;20139;-87
2022/05/24 04:23:14;;;;;;;7.70;1.60;;;13.80;99.90;;;;;;6311845;22;20143;-87
2022/05/24 04:25:40;;;;;;;8.93;1.97;;;13.70;99.90;;;;;;6312167;22;20263;-87
2022/05/24 04:28:06;;;;;;;6.90;1.87;;;13.80;99.90;;;;;;6312183;22;20210;-87
2022/05/24 04:30:32;;;;;;;6.13;1.90;;;13.70;99.90;;;;;;6311763;22;20481;-87
2022/05/24 04:32:58;;;;;;;4.47;2.30;;;13.70;99.90;;;;;;6311528;22;20138;-87
2022/05/24 04:35:24;;;;;;;9.00;1.90;;;13.80;99.90;;;;;;6311954;22;20142;-87
2022/05/24 04:37:49;;;;;;;9.57;2.20;;;13.80;99.90;;;;;;6311651;22;20452;-86
2022/05/24 04:40:15;;;;;;;6.90;2.10;;;13.80;99.90;;;;;;6311404;22;20141;-90
2022/05/24 04:42:41;;;;;;;8.50;2.20;;;13.90;99.90;;;;;;6311838;22;20173;-89
2022/05/24 04:45:11;;;;;;;8.07;2.00;;;13.80;99.90;;;;;;6312107;22;20189;-89
2022/05/24 04:47:37;;;;;;;6.63;1.67;;;13.80;99.90;;;;;;6311712;22;20141;-87
2022/05/24 04:50:07;;;;;;;6.67;2.10;;;13.90;99.90;;;;;;6311493;22;20145;-87
2022/05/24 04:52:36;;;;;;;4.50;1.80;;;14.00;99.90;;;;;;6311795;22;20480;-87
2022/05/24 04:55:04;;;;;;;11.73;2.27;;;14.00;99.90;;;;;;6311710;22;20154;-89
2022/05/24 04:57:29;;;;;;;6.93;2.60;;;13.80;99.90;;;;;;6311614;22;20643;-89
2022/05/24 04:59:55;;;;;;;6.10;2.30;;;13.70;99.90;;;;;;6311444;22;20161;-89
2022/05/24 05:02:21;;;;;;;6.27;1.90;;;13.70;99.90;;;;;;6311311;22;20145;-86
2022/05/24 05:04:47;;;;;;;11.33;2.37;;;13.90;99.90;;;;;;6311571;22;20232;-87
2022/05/24 05:07:13;;;;;;;8.07;2.87;;;14.00;99.90;;;;;;6311676;22;20151;-87
2022/05/24 05:09:38;;;;;;;5.37;2.07;;;14.10;99.90;;;;;;6311140;22;20150;-87
2022/05/24 05:12:07;;;;;;;9.43;2.23;;;14.10;99.90;;;;;;6311514;22;20582;-87
2022/05/24 05:14:33;;;;;;;8.53;1.87;;;14.20;99.90;;;;;;6311386;22;20569;-87
2022/05/24 05:16:59;;;;;;;7.30;2.27;;;14.30;99.90;;;;;;6311569;22;20149;-87
2022/05/24 05:19:25;;;;;;;6.57;2.37;;;14.30;99.90;;;;;;6311422;22;20177;-86
2022/05/24 05:21:50;;;;;;;8.47;1.90;;;14.40;99.90;;;;;;6311459;22;20536;-88
2022/05/24 05:24:16;;;;;;;9.13;1.97;;;14.30;99.90;;;;;;6311124;22;20261;-89
2022/05/24 05:26:42;;;;;;;8.43;2.07;;;14.30;99.90;;;;;;6311479;22;20146;-87
2022/05/24 05:29:07;;;;;;;9.50;2.87;;;14.30;99.90;;;;;;6311427;22;20230;-89
2022/05/24 05:31:33;;;;;;;5.53;1.70;;;14.30;99.90;;;;;;6310931;22;20141;-86
2022/05/24 05:34:00;;;;;;;8.80;2.30;;;14.40;99.90;;;;;;6311485;22;20143;-89
2022/05/24 05:36:28;;;;;;;12.43;2.10;;;14.40;99.90;;;;;;6311087;22;20179;-89
2022/05/24 05:38:55;;;;;;;8.90;1.70;;;14.40;99.90;;;;;;6311499;22;20178;-89
2022/05/24 05:41:24;;;;;;;8.30;2.20;;;14.50;99.90;;;;;;6311371;22;20156;-89
2022/05/24 05:43:49;;;;;;;4.63;1.57;;;14.50;99.90;;;;;;6311150;22;20273;-89
2022/05/24 05:46:16;;;;;;;8.07;1.70;;;14.40;99.90;;;;;;6312655;22;20154;-89
2022/05/24 05:48:42;;;;;;;4.77;1.40;;;14.20;99.90;;;;;;6311869;22;20226;-87
2022/05/24 05:51:10;;;;;;;10.00;2.00;;;14.20;99.90;;;;;;6312424;22;20159;-89
2022/05/24 06:43:13;;;;;;;2.83;1.50;;;15.10;99.90;;;;;;6338076;22;20215;-88
2022/05/24 06:45:39;;;;;;;4.80;1.50;;;15.00;99.90;;;;;;6312852;22;20143;-89
2022/05/24 06:48:11;;;;;;;5.33;1.40;;;15.00;99.90;;;;;;6312718;22;20205;-88
2022/05/24 06:50:39;;;;;;;6.87;1.50;;;15.00;99.90;;;;;;6312659;22;20230;-89
2022/05/24 06:53:04;;;;;;;6.00;1.40;;;14.90;99.90;;;;;;6312493;22;20172;-89
2022/05/24 06:55:30;;;;;;;3.27;1.33;;;14.90;99.90;;;;;;6312455;22;20181;-89
2022/05/24 06:57:56;;;;;;;3.27;1.87;;;15.00;99.90;;;;;;6312338;22;20146;-89
2022/05/24 07:03:09;;;;;;;3.03;1.50;;;15.00;99.90;;;;;;6340042;22;20229;-89
2022/05/24 07:05:36;;;;;;;4.53;2.20;;;15.10;99.90;;;;;;6312618;22;20182;-88
2022/05/24 07:08:02;;;;;;;5.23;2.57;;;15.20;99.90;;;;;;6308268;22;20514;-88
2022/05/24 07:10:30;;;;;;;4.83;1.77;;;15.00;99.90;;;;;;6311410;22;20148;-88
2022/05/24 07:13:08;;;;;;;4.13;2.03;;;15.00;99.90;;;;;;6300348;22;20264;-88
2022/05/24 07:15:34;;;;;;;6.07;1.83;;;15.00;99.90;;;;;;6281069;22;20181;-88
2022/05/24 07:18:00;;;;;;;5.33;2.30;;;15.10;99.90;;;;;;6280606;22;20141;-88
2022/05/24 07:20:27;;;;;;;3.70;1.87;;;15.00;99.90;;;;;;6280774;22;20157;-88
2022/05/24 07:22:57;;;;;;;4.53;2.00;;;15.00;99.90;;;;;;6281096;22;20592;-88
2022/05/24 07:25:23;;;;;;;4.77;1.87;;;15.00;99.90;;;;;;6280860;22;20149;-88
2022/05/24 07:27:48;;;;;;;3.30;1.80;;;15.00;99.90;;;;;;6280805;22;20633;-88
2022/05/24 07:30:15;;;;;;;3.47;1.63;;;15.20;99.90;;;;;;6280318;22;20642;-88
2022/05/24 07:32:42;;;;;;;2.73;1.83;;;15.20;99.90;;;;;;6281071;22;20507;-88
2022/05/24 07:35:09;;;;;;;3.40;1.83;;;15.20;99.90;;;;;;6280809;22;20187;-88
2022/05/24 07:37:34;;;;;;;5.07;1.67;;;15.00;99.90;;;;;;6280732;22;20147;-88
2022/05/24 07:48:13;;;;;;;5.63;1.50;;;15.50;99.90;;;;;;6308388;22;20206;-88
2022/05/24 07:50:39;;;;;;;1.93;1.50;;;15.60;99.90;;;;;;6280382;22;20526;-88
2022/05/24 07:53:06;;;;;;;3.70;2.00;;;15.60;99.90;;;;;;6280868;22;20153;-88
2022/05/24 07:55:31;;;;;;;3.63;2.10;;;15.60;99.90;;;;;;6280635;22;20192;-89
2022/05/24 07:58:00;;;;;;;3.90;1.67;;;15.70;99.90;;;;;;6280586;22;20234;-88
2022/05/24 08:00:26;;;;;;;5.23;1.50;;;15.80;99.90;;;;;;6279718;22;20192;-88
2022/05/24 08:02:53;;;;;;;2.80;1.47;;;15.90;99.90;;;;;;6280608;22;20148;-88
2022/05/24 08:05:20;;;;;;;6.73;1.80;;;16.00;99.90;;;;;;6280373;22;20166;-89
2022/05/24 08:07:46;;;;;;;1.87;1.30;;;16.20;99.90;;;;;;6280639;22;20160;-89
2022/05/24 08:10:12;;;;;;;6.10;1.60;;;16.40;99.90;;;;;;6280530;22;20207;-89
2022/05/24 08:12:38;;;;;;;3.60;1.70;;;16.40;99.90;;;;;;6279625;22;20180;-88
2022/05/24 08:15:05;;;;;;;4.90;1.77;;;16.40;99.90;;;;;;6280730;22;20236;-88
2022/05/24 08:17:31;;;;;;;3.00;1.40;;;16.30;99.90;;;;;;6280003;22;20608;-88
2022/05/24 08:19:56;;;;;;;3.47;1.40;;;16.30;99.90;;;;;;6280526;22;20151;-88
2022/05/24 08:22:23;;;;;;;2.80;1.30;;;16.40;99.90;;;;;;6279523;22;20236;-88
2022/05/24 08:24:49;;;;;;;2.67;1.70;;;16.50;99.90;;;;;;6280216;22;20144;-88
2022/05/24 08:27:16;;;;;;;4.40;1.30;;;16.50;99.90;;;;;;6280579;22;20142;-88
2022/05/24 08:29:42;;;;;;;5.03;2.33;;;16.40;99.90;;;;;;6280326;22;20145;-88
2022/05/24 08:32:07;;;;;;;9.37;3.63;;;16.50;99.90;;;;;;6280452;22;20150;-88
2022/05/24 08:34:33;;;;;;;8.27;3.07;;;16.40;99.90;;;;;;6280116;22;20181;-89
2022/05/24 08:37:00;;;;;;;5.67;2.47;;;16.40;99.90;;;;;;6280418;22;20144;-88
2022/05/24 08:39:25;;;;;;;5.80;1.70;;;16.40;99.90;;;;;;6279565;22;20559;-88
2022/05/24 08:42:19;;;;;;;5.80;1.50;;;16.50;99.90;;;;;;6280809;22;20176;-88
2022/05/24 08:50:40;;;;;;;2.40;1.00;;;16.20;99.90;;;;;;6307221;22;20158;-89
2022/05/24 08:53:10;;;;;;;1.53;1.10;;;16.20;99.90;;;;;;6280598;22;20563;-89
2022/05/24 08:55:37;;;;;;;3.47;1.07;;;16.20;99.90;;;;;;6279604;22;20188;-88
2022/05/24 08:58:05;;;;;;;1.67;1.17;;;16.10;99.90;;;;;;6280229;22;20599;-88
2022/05/24 09:00:35;;;;;;;5.43;1.90;;;16.10;99.90;;;;;;6279744;22;20155;-88
2022/05/24 09:03:04;;;;;;;2.03;1.50;;;16.20;99.90;;;;;;6279809;22;20194;-88
2022/05/24 09:05:35;;;;;;;5.63;1.97;;;16.00;99.90;;;;;;6279136;22;20160;-89
2022/05/24 09:08:16;;;;;;;6.03;1.70;;;16.10;99.90;;;;;;6280030;22;20521;-89
2022/05/24 09:11:01;;;;;;;3.50;1.00;;;16.40;99.90;;;;;;6280191;22;20199;-88
2022/05/24 09:13:57;;;;;;;2.70;1.30;;;16.60;99.90;;;;;;6280382;22;20189;-89
2022/05/24 09:16:34;;;;;;;5.03;1.40;;;16.60;99.90;;;;;;6279295;22;20180;-89
2022/05/24 09:19:25;;;;;;;2.57;1.00;;;16.90;99.90;;;;;;6279719;22;20145;-89
2022/05/24 09:21:53;;;;;;;1.73;0.90;;;17.00;99.90;;;;;;6258362;22;20156;-89
2022/05/24 09:24:25;;;;;;;2.50;0.97;;;17.00;99.90;;;;;;6279919;22;20159;-88
2022/05/24 09:27:07;;;;;;;3.13;1.30;;;17.10;99.90;;;;;;6279211;22;20153;-88
2022/05/24 09:29:58;;;;;;;1.80;1.10;;;17.20;99.90;;;;;;6280266;22;20185;-89
2022/05/24 09:32:34;;;;;;;2.83;1.00;;;17.40;99.90;;;;;;6280737;22;20142;-88
2022/05/24 09:35:05;;;;;;;4.37;1.93;;;17.80;99.90;;;;;;6281969;22;20173;-87
2022/05/24 09:37:31;;;;;;;2.33;1.17;;;17.90;99.90;;;;;;6280721;22;20172;-89
2022/05/24 09:40:01;;;;;;;2.23;1.20;;;17.80;99.90;;;;;;6282068;22;20623;-89
2022/05/24 09:42:30;;;;;;;2.17;0.80;;;17.70;99.90;;;;;;6282103;22;20598;-88
2022/05/24 09:45:06;;;;;;;2.37;0.90;;;17.70;99.90;;;;;;6281680;22;20146;-88
2022/05/24 09:47:37;;;;;;;5.43;1.00;;;17.80;99.90;;;;;;6281671;22;20161;-87
2022/05/24 09:50:17;;;;;;;3.40;1.20;;;17.80;99.90;;;;;;6281211;22;20148;-88
2022/05/24 09:53:05;;;;;;;2.27;0.60;;;17.80;99.90;;;;;;6281784;22;20199;-87
2022/05/24 09:55:48;;;;;;;4.97;1.30;;;17.80;99.90;;;;;;6281791;22;20185;-88
2022/05/24 09:58:22;;;;;;;3.20;1.40;;;17.20;99.90;;;;;;6281481;22;20146;-87
2022/05/24 10:00:52;;;;;;;2.57;1.00;;;17.00;99.90;;;;;;6281939;22;20240;-87
2022/05/24 10:03:25;;;;;;;4.53;1.53;;;16.80;99.90;;;;;;6282009;22;20588;-88
2022/05/24 10:06:02;;;;;;;3.23;0.93;;;16.70;99.90;;;;;;6281915;22;20481;-87
2022/05/24 10:08:28;;;;;;;2.37;0.87;;;16.70;99.90;;;;;;6281068;22;20491;-87
2022/05/24 10:10:57;;;;;;;2.33;0.97;;;17.00;99.90;;;;;;6282026;22;20152;-88
2022/05/24 10:13:38;;;;;;;2.93;1.00;;;17.40;99.90;;;;;;6281381;22;20223;-88
2022/05/24 10:16:16;;;;;;;6.80;1.40;;;17.40;99.90;;;;;;6281395;22;20410;-88
2022/05/24 10:19:10;;;;;;;4.03;1.00;;;17.60;99.90;;;;;;6281954;22;20174;-88
2022/05/24 10:21:45;;;;;;;3.73;1.30;;;17.70;99.90;;;;;;6280965;22;20146;-86
2022/05/24 10:24:41;;;;;;;5.37;1.53;;;17.70;99.90;;;;;;6281452;22;20195;-88
2022/05/24 10:27:15;;;;;;;0.97;0.80;;;17.20;99.90;;;;;;6281179;22;20203;-88
2022/05/24 10:29:59;;;;;;;2.83;1.20;;;16.70;99.90;;;;;;6280709;22;20154;-89
2022/05/24 10:39:11;;;;;;;2.90;0.93;;;16.50;99.90;;;;;;6308465;22;20147;-88
2022/05/24 10:41:55;;;;;;;1.90;1.70;;;16.60;99.90;;;;;;6279843;22;20270;-88
2022/05/24 10:44:34;;;;;;;1.57;0.80;;;16.80;99.90;;;;;;6281820;22;20142;-88
2022/05/24 10:47:24;;;;;;;1.13;0.60;;;17.10;99.90;;;;;;6282463;22;20517;-88
2022/05/24 10:50:01;;;;;;;6.23;0.93;;;17.00;99.90;;;;;;6282348;22;20204;-89
2022/05/24 10:52:55;;;;;;;1.60;0.53;;;17.00;99.90;;;;;;6283188;22;20478;-89
2022/05/24 10:55:46;;;;;;;3.53;1.13;;;17.20;99.90;;;;;;6251128;22;20245;-91
2022/05/24 10:58:17;;;;;;;4.60;0.97;;;17.50;99.90;;;;;;6281058;22;20189;-88
2022/05/24 11:00:45;;;;;;;2.97;1.00;;;17.70;99.90;;;;;;6281093;22;20204;-88
2022/05/24 11:03:16;;;;;;;0.80;0.70;;;17.60;99.90;;;;;;6280578;22;20152;-89
2022/05/24 11:05:49;;;;;;;1.60;1.03;;;17.80;99.90;;;;;;6281407;22;20149;-88
2022/05/24 11:08:33;;;;;;;2.20;1.20;;;17.90;99.90;;;;;;6280887;22;20156;-89
2022/05/24 11:11:17;;;;;;;2.17;0.90;;;17.90;99.90;;;;;;6281096;22;20151;-88
2022/05/24 11:14:06;;;;;;;3.23;0.90;;;18.30;99.90;;;;;;6279742;22;20494;-88
2022/05/24 11:16:47;;;;;;;2.77;1.37;;;18.60;99.20;;;;;;6203795;22;20249;-88
2022/05/24 11:19:16;;;;;;;4.77;1.00;;;19.00;98.20;;;;;;6280907;22;20145;-88
2022/05/24 11:21:53;;;;;;;2.50;0.60;;;19.10;98.10;;;;;;6280659;22;20163;-88
2022/05/24 11:24:51;;;;;;;3.73;1.17;;;19.00;98.40;;;;;;6280625;22;20225;-88
2022/05/24 11:27:31;;;;;;;1.57;0.60;;;19.10;98.40;;;;;;6280994;22;20291;-88
2022/05/24 11:30:06;;;;;;;1.73;0.77;;;19.80;97.50;;;;;;6280998;22;20587;-88
2022/05/24 11:32:39;;;;;;;2.77;1.17;;;19.80;97.90;;;;;;6280981;22;20147;-88
2022/05/24 11:35:25;;;;;;;3.27;1.20;;;19.70;97.90;;;;;;6281299;22;20205;-88
2022/05/24 11:37:55;;;;;;;2.50;0.90;;;19.10;99.90;;;;;;6281495;22;20622;-89
2022/05/24 11:40:39;;;;;;;2.27;1.10;;;17.30;99.90;;;;;;6281993;22;20181;-88
2022/05/24 11:43:39;;;;;;;3.20;1.20;;;16.40;99.90;;;;;;6281367;22;20176;-89
2022/05/24 11:46:26;;;;;;;2.83;1.50;;;16.10;99.90;;;;;;6228739;22;20570;-88
2022/05/24 11:48:54;;;;;;;4.43;2.50;;;16.60;99.90;;;;;;6281274;22;20150;-88
2022/05/24 11:51:37;;;;;;;2.80;1.63;;;17.60;99.90;;;;;;6281682;22;20663;-88
2022/05/24 11:54:17;;;;;;;5.90;0.90;;;18.80;99.90;;;;;;6281287;22;20199;-88
2022/05/24 11:57:00;;;;;;;4.40;0.60;;;19.80;99.90;;;;;;6280214;22;20188;-88
2022/05/24 11:59:46;;;;;;;3.07;0.70;;;20.60;99.90;;;;;;6281383;22;20152;-89
2022/05/24 12:02:32;;;;;;;2.33;0.60;;;21.10;99.90;;;;;;6281018;22;20168;-88
2022/05/24 12:08:04;;;;;;;3.43;0.80;;;23.20;95.10;;;;;;6307468;22;20236;-88
2022/05/24 12:10:40;;;;;;;3.03;0.63;;;24.00;95.00;;;;;;6281564;22;20141;-88
2022/05/24 12:13:56;;;;;;;2.13;1.30;;;25.00;91.10;;;;;;6281085;22;20187;-88
2022/05/24 12:16:46;;;;;;;3.60;0.70;;;24.20;91.10;;;;;;6269534;22;20191;-88
2022/05/24 12:19:43;;;;;;;5.47;1.20;;;22.20;93.20;;;;;;6281305;22;20154;-88
2022/05/24 12:22:16;;;;;;;4.97;1.00;;;20.70;99.90;;;;;;6281004;22;20153;-88
2022/05/24 12:24:42;;;;;;;3.40;1.20;;;18.70;99.90;;;;;;6281066;22;20150;-88
2022/05/24 12:27:16;;;;;;;3.20;1.23;;;17.50;99.90;;;;;;6281201;22;20150;-89
2022/05/24 12:29:51;;;;;;;3.10;1.67;;;16.50;99.90;;;;;;6281131;22;20153;-86
2022/05/24 12:32:18;;;;;;;4.13;1.43;;;16.20;99.90;;;;;;6281421;22;20150;-89
2022/05/24 12:34:44;;;;;;;1.97;1.20;;;16.00;99.90;;;;;;6280629;22;20188;-89
2022/05/24 12:37:24;;;;;;;4.87;1.40;;;16.30;99.90;;;;;;6280336;22;20153;-89
2022/05/24 12:40:13;;;;;;;2.23;1.17;;;17.40;99.90;;;;;;6279845;22;20178;-89
2022/05/24 12:42:52;;;;;;;0.90;0.70;;;18.90;99.90;;;;;;6280133;22;20176;-88
2022/05/24 12:45:30;;;;;;;1.73;0.50;;;19.60;99.90;;;;;;6279393;22;20215;-89
2022/05/24 12:47:57;;;;;;;1.47;0.50;;;21.10;99.90;;;;;;6280533;22;20237;-89
2022/05/24 12:50:36;;;;;;;2.47;1.43;;;21.70;98.40;;;;;;6279909;22;20156;-89
2022/05/24 12:53:12;;;;;;;3.17;1.40;;;23.00;97.60;;;;;;6280302;22;20196;-89
2022/05/24 12:55:58;;;;;;;3.10;1.00;;;24.30;94.00;;;;;;6279709;22;20173;-89
2022/05/24 12:58:45;;;;;;;1.37;0.60;;;24.80;91.80;;;;;;6280139;22;20149;-89
2022/05/24 13:01:19;;;;;;;2.87;0.80;;;24.90;90.50;;;;;;6279542;22;20142;-89
2022/05/24 13:03:47;;;;;;;5.70;0.90;;;24.60;90.70;;;;;;6280488;22;20157;-89
2022/05/24 13:06:29;;;;;;;4.33;1.00;;;23.30;91.70;;;;;;6280259;22;20150;-89
2022/05/24 13:09:28;;;;;;;2.23;1.00;;;21.80;93.30;;;;;;6279408;22;20215;-89
2022/05/24 13:12:01;;;;;;;2.73;1.10;;;20.90;95.30;;;;;;6279630;22;20168;-89
2022/05/24 13:14:49;;;;;;;3.40;1.33;;;19.60;96.40;;;;;;6279925;22;20211;-88
2022/05/24 13:17:22;;;;;;;3.20;1.40;;;18.20;99.90;;;;;;6279928;22;20565;-89
2022/05/24 13:20:03;;;;;;;1.67;1.13;;;17.20;99.90;;;;;;6279897;22;20195;-89
2022/05/24 13:22:41;;;;;;;2.10;1.10;;;16.70;99.90;;;;;;6279574;22;20205;-88
2022/05/24 13:25:19;;;;;;;2.73;1.13;;;16.30;99.90;;;;;;6279588;22;20156;-89
2022/05/24 13:27:53;;;;;;;5.23;1.00;;;15.70;99.90;;;;;;6280038;22;20144;-89
2022/05/24 13:33:33;;;;;;;3.87;1.50;;;14.80;99.90;;;;;;6306896;22;20283;-89
2022/05/24 13:35:59;;;;;;;3.03;1.70;;;14.90;99.90;;;;;;6279660;22;20222;-89
2022/05/24 13:38:26;;;;;;;2.47;1.90;;;15.10;99.90;;;;;;6279736;22;20135;-89
2022/05/24 13:40:56;;;;;;;2.30;2.10;;;15.30;99.90;;;;;;6280187;22;20153;-88
2022/05/24 13:43:44;;;;;;;5.53;2.67;;;15.80;99.90;;;;;;6279099;22;20150;-89
2022/05/24 13:46:13;;;;;;;5.13;1.43;;;17.00;99.90;;;;;;6279642;22;20143;-89
2022/05/24 13:48:51;;;;;;;2.00;0.87;;;17.90;99.90;;;;;;6279841;22;20146;-89
2022/05/24 13:51:30;;;;;;;1.50;0.37;;;19.70;99.90;;;;;;6280031;22;20158;-90
2022/05/24 13:53:57;;;;;;;0.97;0.30;;;21.30;99.90;;;;;;6279377;22;20152;-89
2022/05/24 13:56:31;;;;;;;3.07;0.60;;;22.60;97.70;;;;;;6280301;22;20158;-89
2022/05/24 13:59:19;;;;;;;1.70;0.30;;;23.50;94.90;;;;;;6279671;22;20221;-89
2022/05/24 14:01:49;;;;;;;1.07;0.40;;;23.90;91.40;;;;;;6279768;22;20231;-89
2022/05/24 14:04:27;;;;;;;0.97;0.63;;;23.20;91.30;;;;;;6279458;22;20150;-89
2022/05/24 14:07:00;;;;;;;2.00;0.93;;;22.70;92.90;;;;;;6279974;22;20146;-89
2022/05/24 14:09:28;;;;;;;2.93;0.80;;;22.20;92.40;;;;;;6279556;22;20146;-89
2022/05/24 14:11:54;;;;;;;2.10;0.90;;;21.50;93.80;;;;;;6279536;22;20146;-89
2022/05/24 14:14:22;;;;;;;1.53;1.00;;;21.00;94.60;;;;;;6278982;22;20243;-89
2022/05/24 14:16:48;;;;;;;5.43;1.30;;;20.20;97.00;;;;;;6279410;22;20143;-91
2022/05/24 14:19:14;;;;;;;3.53;0.80;;;17.10;99.90;;;;;;6280882;22;20149;-90
2022/05/24 14:21:42;;;;;;;1.70;0.90;;;15.00;99.90;;;;;;6281217;22;20142;-89
2022/05/24 14:24:13;;;;;;;1.63;1.10;;;14.50;99.90;;;;;;6281601;22;20172;-89
2022/05/24 14:26:43;;;;;;;4.30;1.20;;;14.50;99.90;;;;;;6280508;22;20148;-89
2022/05/24 14:29:09;;;;;;;2.17;1.00;;;14.60;99.90;;;;;;6281867;22;20149;-89
2022/05/24 14:31:36;;;;;;;6.27;1.40;;;14.90;99.90;;;;;;6281392;22;20478;-89
2022/05/24 14:34:05;;;;;;;223.30;15.90;;;15.20;99.90;;;;;;6281605;22;20234;-89
2022/05/24 14:36:32;;;;;;;30.83;4.23;;;16.10;99.90;;;;;;6280350;22;20150;-90
2022/05/24 14:38:58;;;;;;;12.90;2.83;;;17.90;99.90;;;;;;6280758;22;20181;-90